Soleuvre, Luxembourg
Current Conditions -  °F | °C
As of 9:50 AM on Thursday 23 Oct 2014 (Local Time) from ELLX Reporting Station
Broken Clouds Broken Clouds  
Wind Chill: 41°   Ceiling: 3700
Heat Index: 45°   Visibility: 4mi
Dew Point: 43°   Wind: 6mph
Humidity: 93%   Direction: 250°WSW
Pressure: 30.24"   Gusts: NA
Location:  49.53°N, 5.94°E
Report Text: ELLX 230750Z 25005KT 220V280 7000 BKN037 07/06 Q1024 NOSIG
Loading
Personal Weather Stations






























Interactive Weather Map
Tropical Storm Tracking
New forecast layout! Learn more

10-Day Weather Forecast

Advertisements
Track Severe Weather on mobile